sensor_id;sensor_type;location;lat;lon;timestamp;P1;durP1;ratioP1;P2;durP2;ratioP2
55758;SDS011;41678;52.126;20.664;2024-01-10T00:00:42;33.30;;;13.47;;
55758;SDS011;41678;52.126;20.664;2024-01-10T00:06:18;31.53;;;12.17;;
55758;SDS011;41678;52.126;20.664;2024-01-10T00:11:37;10.27;;;7.17;;
55758;SDS011;41678;52.126;20.664;2024-01-10T00:16:57;46.37;;;16.23;;
55758;SDS011;41678;52.126;20.664;2024-01-10T00:22:17;19.00;;;11.57;;
55758;SDS011;41678;52.126;20.664;2024-01-10T00:27:36;16.27;;;11.00;;
55758;SDS011;41678;52.126;20.664;2024-01-10T00:32:55;25.47;;;10.77;;
55758;SDS011;41678;52.126;20.664;2024-01-10T00:38:15;25.50;;;9.50;;
55758;SDS011;41678;52.126;20.664;2024-01-10T00:43:34;12.77;;;6.33;;
55758;SDS011;41678;52.126;20.664;2024-01-10T00:48:54;17.03;;;6.20;;
55758;SDS011;41678;52.126;20.664;2024-01-10T00:54:13;22.63;;;9.27;;
55758;SDS011;41678;52.126;20.664;2024-01-10T00:59:32;17.10;;;9.07;;
55758;SDS011;41678;52.126;20.664;2024-01-10T01:04:52;26.37;;;7.23;;
55758;SDS011;41678;52.126;20.664;2024-01-10T01:10:11;17.53;;;9.37;;
55758;SDS011;41678;52.126;20.664;2024-01-10T01:15:31;14.73;;;7.50;;
55758;SDS011;41678;52.126;20.664;2024-01-10T01:20:51;12.02;;;6.95;;
55758;SDS011;41678;52.126;20.664;2024-01-10T01:26:10;17.03;;;8.43;;
55758;SDS011;41678;52.126;20.664;2024-01-10T01:31:30;34.07;;;9.83;;
55758;SDS011;41678;52.126;20.664;2024-01-10T01:36:50;16.57;;;8.27;;
55758;SDS011;41678;52.126;20.664;2024-01-10T01:42:11;18.17;;;10.82;;
55758;SDS011;41678;52.126;20.664;2024-01-10T01:47:31;16.30;;;10.70;;
55758;SDS011;41678;52.126;20.664;2024-01-10T01:52:50;43.23;;;10.77;;
55758;SDS011;41678;52.126;20.664;2024-01-10T01:58:10;21.13;;;9.50;;
55758;SDS011;41678;52.126;20.664;2024-01-10T02:08:51;20.77;;;6.93;;
55758;SDS011;41678;52.126;20.664;2024-01-10T02:14:11;42.23;;;10.03;;
55758;SDS011;41678;52.126;20.664;2024-01-10T02:19:31;22.30;;;12.00;;
55758;SDS011;41678;52.126;20.664;2024-01-10T02:24:53;26.17;;;9.47;;
55758;SDS011;41678;52.126;20.664;2024-01-10T02:30:13;14.27;;;7.40;;
55758;SDS011;41678;52.126;20.664;2024-01-10T02:35:33;29.43;;;10.90;;
55758;SDS011;41678;52.126;20.664;2024-01-10T02:40:52;10.43;;;6.63;;
55758;SDS011;41678;52.126;20.664;2024-01-10T02:46:12;34.30;;;8.67;;
55758;SDS011;41678;52.126;20.664;2024-01-10T02:51:32;29.87;;;6.97;;
55758;SDS011;41678;52.126;20.664;2024-01-10T02:56:51;21.63;;;9.50;;
55758;SDS011;41678;52.126;20.664;2024-01-10T03:02:11;17.97;;;8.10;;
55758;SDS011;41678;52.126;20.664;2024-01-10T03:07:31;28.50;;;9.10;;
55758;SDS011;41678;52.126;20.664;2024-01-10T03:12:50;8.20;;;6.10;;
55758;SDS011;41678;52.126;20.664;2024-01-10T03:18:10;21.40;;;10.90;;
55758;SDS011;41678;52.126;20.664;2024-01-10T03:23:29;6.83;;;4.40;;
55758;SDS011;41678;52.126;20.664;2024-01-10T03:28:49;24.70;;;9.07;;
55758;SDS011;41678;52.126;20.664;2024-01-10T03:34:09;21.37;;;9.57;;
55758;SDS011;41678;52.126;20.664;2024-01-10T03:39:28;6.30;;;3.63;;
55758;SDS011;41678;52.126;20.664;2024-01-10T03:44:48;25.43;;;8.90;;
55758;SDS011;41678;52.126;20.664;2024-01-10T03:50:07;28.50;;;21.40;;
55758;SDS011;41678;52.126;20.664;2024-01-10T03:55:27;7.10;;;4.97;;
55758;SDS011;41678;52.126;20.664;2024-01-10T04:00:47;9.30;;;4.53;;
55758;SDS011;41678;52.126;20.664;2024-01-10T04:06:07;7.87;;;4.87;;
55758;SDS011;41678;52.126;20.664;2024-01-10T04:11:27;32.70;;;5.87;;
55758;SDS011;41678;52.126;20.664;2024-01-10T04:16:46;3.27;;;2.40;;
55758;SDS011;41678;52.126;20.664;2024-01-10T04:22:05;10.73;;;7.20;;
55758;SDS011;41678;52.126;20.664;2024-01-10T04:27:25;10.80;;;6.73;;
55758;SDS011;41678;52.126;20.664;2024-01-10T04:32:46;15.88;;;12.63;;
55758;SDS011;41678;52.126;20.664;2024-01-10T04:38:05;24.97;;;6.27;;
55758;SDS011;41678;52.126;20.664;2024-01-10T04:43:25;16.50;;;6.67;;
55758;SDS011;41678;52.126;20.664;2024-01-10T04:48:44;6.00;;;3.57;;
55758;SDS011;41678;52.126;20.664;2024-01-10T04:54:04;22.07;;;4.00;;
55758;SDS011;41678;52.126;20.664;2024-01-10T04:59:23;12.93;;;7.07;;
55758;SDS011;41678;52.126;20.664;2024-01-10T05:04:43;21.90;;;11.17;;
55758;SDS011;41678;52.126;20.664;2024-01-10T05:10:02;28.60;;;11.43;;
55758;SDS011;41678;52.126;20.664;2024-01-10T05:15:23;35.45;;;12.10;;
55758;SDS011;41678;52.126;20.664;2024-01-10T05:20:43;17.27;;;8.77;;
55758;SDS011;41678;52.126;20.664;2024-01-10T05:26:02;30.40;;;10.80;;
55758;SDS011;41678;52.126;20.664;2024-01-10T05:31:22;13.83;;;7.07;;
55758;SDS011;41678;52.126;20.664;2024-01-10T05:36:41;11.53;;;6.30;;
55758;SDS011;41678;52.126;20.664;2024-01-10T05:42:00;26.83;;;9.57;;
55758;SDS011;41678;52.126;20.664;2024-01-10T05:47:22;10.05;;;7.28;;
55758;SDS011;41678;52.126;20.664;2024-01-10T05:52:41;19.67;;;7.43;;
55758;SDS011;41678;52.126;20.664;2024-01-10T05:58:02;15.82;;;9.88;;
55758;SDS011;41678;52.126;20.664;2024-01-10T06:03:22;13.27;;;5.63;;
55758;SDS011;41678;52.126;20.664;2024-01-10T06:14:03;11.03;;;3.20;;
55758;SDS011;41678;52.126;20.664;2024-01-10T06:19:23;9.70;;;6.53;;
55758;SDS011;41678;52.126;20.664;2024-01-10T06:24:43;12.33;;;6.53;;
55758;SDS011;41678;52.126;20.664;2024-01-10T06:30:03;10.00;;;5.03;;
55758;SDS011;41678;52.126;20.664;2024-01-10T06:35:23;29.93;;;8.67;;
55758;SDS011;41678;52.126;20.664;2024-01-10T06:40:42;27.30;;;9.37;;
55758;SDS011;41678;52.126;20.664;2024-01-10T06:51:23;31.00;;;21.27;;
55758;SDS011;41678;52.126;20.664;2024-01-10T06:56:42;11.03;;;6.03;;
55758;SDS011;41678;52.126;20.664;2024-01-10T07:02:02;27.70;;;12.17;;
55758;SDS011;41678;52.126;20.664;2024-01-10T07:07:22;15.67;;;5.27;;
55758;SDS011;41678;52.126;20.664;2024-01-10T07:12:42;18.87;;;10.00;;
55758;SDS011;41678;52.126;20.664;2024-01-10T07:18:02;12.97;;;7.90;;
55758;SDS011;41678;52.126;20.664;2024-01-10T07:23:22;13.03;;;6.50;;
55758;SDS011;41678;52.126;20.664;2024-01-10T07:28:44;12.63;;;7.33;;
55758;SDS011;41678;52.126;20.664;2024-01-10T07:34:04;14.77;;;8.83;;
55758;SDS011;41678;52.126;20.664;2024-01-10T07:39:26;10.90;;;6.57;;
55758;SDS011;41678;52.126;20.664;2024-01-10T07:44:46;12.93;;;6.70;;
55758;SDS011;41678;52.126;20.664;2024-01-10T07:50:06;11.67;;;6.17;;
55758;SDS011;41678;52.126;20.664;2024-01-10T07:55:25;9.90;;;6.83;;
55758;SDS011;41678;52.126;20.664;2024-01-10T08:00:48;21.53;;;14.40;;
55758;SDS011;41678;52.126;20.664;2024-01-10T08:06:08;6.03;;;4.10;;
55758;SDS011;41678;52.126;20.664;2024-01-10T08:11:29;16.10;;;7.97;;
55758;SDS011;41678;52.126;20.664;2024-01-10T08:16:48;26.30;;;9.63;;
55758;SDS011;41678;52.126;20.664;2024-01-10T08:22:08;9.00;;;5.47;;
55758;SDS011;41678;52.126;20.664;2024-01-10T08:27:27;22.10;;;9.43;;
55758;SDS011;41678;52.126;20.664;2024-01-10T08:32:47;18.70;;;6.07;;
55758;SDS011;41678;52.126;20.664;2024-01-10T08:38:07;15.03;;;8.33;;
55758;SDS011;41678;52.126;20.664;2024-01-10T08:43:29;13.77;;;7.65;;
55758;SDS011;41678;52.126;20.664;2024-01-10T08:48:49;15.57;;;5.90;;
55758;SDS011;41678;52.126;20.664;2024-01-10T08:54:08;17.97;;;9.20;;
55758;SDS011;41678;52.126;20.664;2024-01-10T08:59:28;46.47;;;18.10;;
55758;SDS011;41678;52.126;20.664;2024-01-10T09:04:48;13.10;;;4.97;;
55758;SDS011;41678;52.126;20.664;2024-01-10T09:10:08;19.07;;;6.87;;
55758;SDS011;41678;52.126;20.664;2024-01-10T09:15:28;13.33;;;7.40;;
55758;SDS011;41678;52.126;20.664;2024-01-10T09:20:48;14.60;;;9.23;;
55758;SDS011;41678;52.126;20.664;2024-01-10T09:26:07;10.25;;;6.47;;
55758;SDS011;41678;52.126;20.664;2024-01-10T09:31:28;7.75;;;4.65;;
55758;SDS011;41678;52.126;20.664;2024-01-10T09:36:47;26.15;;;11.52;;
55758;SDS011;41678;52.126;20.664;2024-01-10T09:42:07;25.75;;;9.27;;
55758;SDS011;41678;52.126;20.664;2024-01-10T09:47:27;13.23;;;4.25;;
55758;SDS011;41678;52.126;20.664;2024-01-10T09:53:04;40.58;;;12.10;;
55758;SDS011;41678;52.126;20.664;2024-01-10T09:58:28;20.27;;;7.88;;
55758;SDS011;41678;52.126;20.664;2024-01-10T10:03:47;19.83;;;10.20;;
55758;SDS011;41678;52.126;20.664;2024-01-10T10:09:09;43.60;;;10.90;;
55758;SDS011;41678;52.126;20.664;2024-01-10T10:14:29;25.00;;;10.27;;
55758;SDS011;41678;52.126;20.664;2024-01-10T10:19:49;9.05;;;5.70;;
55758;SDS011;41678;52.126;20.664;2024-01-10T10:25:09;15.10;;;8.70;;
55758;SDS011;41678;52.126;20.664;2024-01-10T10:30:30;23.80;;;13.77;;
55758;SDS011;41678;52.126;20.664;2024-01-10T10:35:51;10.93;;;7.05;;
55758;SDS011;41678;52.126;20.664;2024-01-10T10:41:10;28.17;;;10.85;;
55758;SDS011;41678;52.126;20.664;2024-01-10T10:46:29;29.55;;;9.52;;
55758;SDS011;41678;52.126;20.664;2024-01-10T10:51:51;20.10;;;7.78;;
55758;SDS011;41678;52.126;20.664;2024-01-10T10:57:14;34.80;;;13.45;;
55758;SDS011;41678;52.126;20.664;2024-01-10T11:02:37;13.40;;;7.20;;
55758;SDS011;41678;52.126;20.664;2024-01-10T11:07:57;22.38;;;7.18;;
55758;SDS011;41678;52.126;20.664;2024-01-10T11:13:26;10.90;;;5.65;;
55758;SDS011;41678;52.126;20.664;2024-01-10T11:24:31;18.40;;;9.25;;
55758;SDS011;41678;52.126;20.664;2024-01-10T11:29:51;24.98;;;10.48;;
55758;SDS011;41678;52.126;20.664;2024-01-10T11:35:12;20.83;;;10.18;;
55758;SDS011;41678;52.126;20.664;2024-01-10T11:40:47;25.15;;;12.68;;
55758;SDS011;41678;52.126;20.664;2024-01-10T11:46:09;8.52;;;4.90;;
55758;SDS011;41678;52.126;20.664;2024-01-10T11:51:31;25.58;;;13.10;;
55758;SDS011;41678;52.126;20.664;2024-01-10T11:56:51;10.80;;;7.22;;
55758;SDS011;41678;52.126;20.664;2024-01-10T12:02:12;33.83;;;12.93;;
55758;SDS011;41678;52.126;20.664;2024-01-10T12:07:33;31.83;;;11.45;;
55758;SDS011;41678;52.126;20.664;2024-01-10T12:12:53;46.35;;;13.50;;
55758;SDS011;41678;52.126;20.664;2024-01-10T12:18:14;20.10;;;12.07;;
55758;SDS011;41678;52.126;20.664;2024-01-10T12:23:33;40.63;;;11.35;;
55758;SDS011;41678;52.126;20.664;2024-01-10T12:34:17;32.92;;;13.07;;
55758;SDS011;41678;52.126;20.664;2024-01-10T12:39:37;38.78;;;18.25;;
55758;SDS011;41678;52.126;20.664;2024-01-10T12:44:57;33.83;;;13.88;;
55758;SDS011;41678;52.126;20.664;2024-01-10T12:50:16;24.52;;;13.38;;
55758;SDS011;41678;52.126;20.664;2024-01-10T12:55:36;27.65;;;11.43;;
55758;SDS011;41678;52.126;20.664;2024-01-10T13:00:56;11.55;;;5.32;;
55758;SDS011;41678;52.126;20.664;2024-01-10T13:06:16;15.07;;;7.95;;
55758;SDS011;41678;52.126;20.664;2024-01-10T13:11:37;38.35;;;13.52;;
55758;SDS011;41678;52.126;20.664;2024-01-10T13:16:57;53.72;;;15.48;;
55758;SDS011;41678;52.126;20.664;2024-01-10T13:22:17;31.33;;;12.23;;
55758;SDS011;41678;52.126;20.664;2024-01-10T13:27:38;29.33;;;12.93;;
55758;SDS011;41678;52.126;20.664;2024-01-10T13:32:57;42.22;;;14.85;;
55758;SDS011;41678;52.126;20.664;2024-01-10T13:38:17;18.05;;;6.50;;
55758;SDS011;41678;52.126;20.664;2024-01-10T13:43:37;43.85;;;16.17;;
55758;SDS011;41678;52.126;20.664;2024-01-10T13:48:59;33.25;;;13.88;;
55758;SDS011;41678;52.126;20.664;2024-01-10T13:54:20;31.07;;;15.77;;
55758;SDS011;41678;52.126;20.664;2024-01-10T13:59:40;31.55;;;11.43;;
55758;SDS011;41678;52.126;20.664;2024-01-10T14:05:00;36.13;;;10.88;;
55758;SDS011;41678;52.126;20.664;2024-01-10T14:10:24;31.88;;;13.73;;
55758;SDS011;41678;52.126;20.664;2024-01-10T14:15:44;40.55;;;14.73;;
55758;SDS011;41678;52.126;20.664;2024-01-10T14:21:04;58.22;;;19.92;;
55758;SDS011;41678;52.126;20.664;2024-01-10T14:26:24;52.22;;;19.33;;
55758;SDS011;41678;52.126;20.664;2024-01-10T14:31:45;80.32;;;15.07;;
55758;SDS011;41678;52.126;20.664;2024-01-10T14:37:05;48.65;;;19.52;;
55758;SDS011;41678;52.126;20.664;2024-01-10T14:42:25;29.50;;;14.90;;
55758;SDS011;41678;52.126;20.664;2024-01-10T14:47:45;48.67;;;16.65;;
55758;SDS011;41678;52.126;20.664;2024-01-10T14:53:05;49.08;;;17.15;;
55758;SDS011;41678;52.126;20.664;2024-01-10T14:58:24;48.47;;;18.23;;
55758;SDS011;41678;52.126;20.664;2024-01-10T15:03:44;32.78;;;14.57;;
55758;SDS011;41678;52.126;20.664;2024-01-10T15:09:03;34.17;;;15.30;;
55758;SDS011;41678;52.126;20.664;2024-01-10T15:14:24;48.73;;;13.03;;
55758;SDS011;41678;52.126;20.664;2024-01-10T15:19:44;48.17;;;16.55;;
55758;SDS011;41678;52.126;20.664;2024-01-10T15:25:05;39.60;;;16.10;;
55758;SDS011;41678;52.126;20.664;2024-01-10T15:30:25;43.45;;;16.35;;
55758;SDS011;41678;52.126;20.664;2024-01-10T15:35:45;39.35;;;14.55;;
55758;SDS011;41678;52.126;20.664;2024-01-10T15:41:06;36.53;;;16.13;;
55758;SDS011;41678;52.126;20.664;2024-01-10T15:46:26;33.75;;;12.88;;
55758;SDS011;41678;52.126;20.664;2024-01-10T15:51:45;39.78;;;14.30;;
55758;SDS011;41678;52.126;20.664;2024-01-10T15:57:05;52.35;;;18.25;;
55758;SDS011;41678;52.126;20.664;2024-01-10T16:02:25;56.15;;;14.77;;
55758;SDS011;41678;52.126;20.664;2024-01-10T16:07:45;32.63;;;16.17;;
55758;SDS011;41678;52.126;20.664;2024-01-10T16:13:05;43.28;;;13.35;;
55758;SDS011;41678;52.126;20.664;2024-01-10T16:18:24;51.28;;;15.35;;
55758;SDS011;41678;52.126;20.664;2024-01-10T16:23:44;25.05;;;12.32;;
55758;SDS011;41678;52.126;20.664;2024-01-10T16:29:03;60.25;;;16.90;;
55758;SDS011;41678;52.126;20.664;2024-01-10T16:34:23;48.10;;;15.40;;
55758;SDS011;41678;52.126;20.664;2024-01-10T16:39:42;46.45;;;15.25;;
55758;SDS011;41678;52.126;20.664;2024-01-10T16:45:02;44.17;;;10.55;;
55758;SDS011;41678;52.126;20.664;2024-01-10T16:50:21;43.55;;;13.25;;
55758;SDS011;41678;52.126;20.664;2024-01-10T16:55:41;36.97;;;18.13;;
55758;SDS011;41678;52.126;20.664;2024-01-10T17:01:01;42.97;;;19.02;;
55758;SDS011;41678;52.126;20.664;2024-01-10T17:06:21;72.97;;;21.40;;
55758;SDS011;41678;52.126;20.664;2024-01-10T17:11:41;67.75;;;20.75;;
55758;SDS011;41678;52.126;20.664;2024-01-10T17:17:01;54.17;;;23.87;;
55758;SDS011;41678;52.126;20.664;2024-01-10T17:22:21;42.95;;;17.88;;
55758;SDS011;41678;52.126;20.664;2024-01-10T17:27:41;50.60;;;18.55;;
55758;SDS011;41678;52.126;20.664;2024-01-10T17:33:00;46.13;;;18.95;;
55758;SDS011;41678;52.126;20.664;2024-01-10T17:38:22;57.00;;;18.60;;
55758;SDS011;41678;52.126;20.664;2024-01-10T17:43:41;84.72;;;25.65;;
55758;SDS011;41678;52.126;20.664;2024-01-10T17:49:01;116.97;;;37.05;;
55758;SDS011;41678;52.126;20.664;2024-01-10T17:54:20;93.63;;;24.77;;
55758;SDS011;41678;52.126;20.664;2024-01-10T17:59:40;58.30;;;23.65;;
55758;SDS011;41678;52.126;20.664;2024-01-10T18:04:59;60.88;;;22.48;;
55758;SDS011;41678;52.126;20.664;2024-01-10T18:10:19;36.55;;;13.88;;
55758;SDS011;41678;52.126;20.664;2024-01-10T18:15:40;54.35;;;19.85;;
55758;SDS011;41678;52.126;20.664;2024-01-10T18:21:00;46.85;;;20.00;;
55758;SDS011;41678;52.126;20.664;2024-01-10T18:26:20;67.28;;;24.80;;
55758;SDS011;41678;52.126;20.664;2024-01-10T18:54:12;41.72;;;12.80;;
55758;SDS011;41678;52.126;20.664;2024-01-10T18:59:32;41.88;;;17.20;;
55758;SDS011;41678;52.126;20.664;2024-01-10T19:04:51;42.60;;;17.17;;
55758;SDS011;41678;52.126;20.664;2024-01-10T19:10:11;27.98;;;10.32;;
55758;SDS011;41678;52.126;20.664;2024-01-10T19:15:31;57.88;;;22.17;;
55758;SDS011;41678;52.126;20.664;2024-01-10T19:20:51;38.40;;;12.95;;
55758;SDS011;41678;52.126;20.664;2024-01-10T19:26:23;38.72;;;15.13;;
55758;SDS011;41678;52.126;20.664;2024-01-10T19:31:43;27.95;;;14.48;;
55758;SDS011;41678;52.126;20.664;2024-01-10T19:37:02;35.45;;;15.65;;
55758;SDS011;41678;52.126;20.664;2024-01-10T19:42:24;39.05;;;10.73;;
55758;SDS011;41678;52.126;20.664;2024-01-10T19:47:44;31.73;;;14.07;;
55758;SDS011;41678;52.126;20.664;2024-01-10T19:53:03;36.13;;;13.98;;
55758;SDS011;41678;52.126;20.664;2024-01-10T19:58:22;60.45;;;14.98;;
55758;SDS011;41678;52.126;20.664;2024-01-10T20:03:42;39.30;;;13.38;;
55758;SDS011;41678;52.126;20.664;2024-01-10T20:09:01;30.17;;;17.15;;
55758;SDS011;41678;52.126;20.664;2024-01-10T20:14:22;24.33;;;10.75;;
55758;SDS011;41678;52.126;20.664;2024-01-10T20:19:42;53.78;;;16.33;;
55758;SDS011;41678;52.126;20.664;2024-01-10T20:25:01;52.80;;;18.63;;
55758;SDS011;41678;52.126;20.664;2024-01-10T20:30:21;19.52;;;8.65;;
55758;SDS011;41678;52.126;20.664;2024-01-10T20:35:41;61.83;;;21.67;;
55758;SDS011;41678;52.126;20.664;2024-01-10T20:41:01;66.97;;;23.63;;
55758;SDS011;41678;52.126;20.664;2024-01-10T20:46:21;72.72;;;21.15;;
55758;SDS011;41678;52.126;20.664;2024-01-10T20:51:40;15.57;;;8.48;;
55758;SDS011;41678;52.126;20.664;2024-01-10T20:57:00;35.22;;;15.15;;
55758;SDS011;41678;52.126;20.664;2024-01-10T21:02:19;42.08;;;16.50;;
55758;SDS011;41678;52.126;20.664;2024-01-10T21:07:39;44.83;;;18.10;;
55758;SDS011;41678;52.126;20.664;2024-01-10T21:12:58;51.83;;;19.50;;
55758;SDS011;41678;52.126;20.664;2024-01-10T21:18:18;39.00;;;15.80;;
55758;SDS011;41678;52.126;20.664;2024-01-10T21:23:38;29.85;;;12.30;;
55758;SDS011;41678;52.126;20.664;2024-01-10T21:28:57;38.08;;;18.75;;
55758;SDS011;41678;52.126;20.664;2024-01-10T21:34:17;34.20;;;15.40;;
55758;SDS011;41678;52.126;20.664;2024-01-10T21:39:36;28.80;;;12.10;;
55758;SDS011;41678;52.126;20.664;2024-01-10T21:44:55;36.83;;;15.90;;
55758;SDS011;41678;52.126;20.664;2024-01-10T21:50:15;24.60;;;7.32;;
55758;SDS011;41678;52.126;20.664;2024-01-10T21:55:34;26.73;;;11.60;;
55758;SDS011;41678;52.126;20.664;2024-01-10T22:00:53;34.40;;;14.38;;
55758;SDS011;41678;52.126;20.664;2024-01-10T22:06:13;34.10;;;15.50;;
55758;SDS011;41678;52.126;20.664;2024-01-10T22:11:33;26.10;;;12.50;;
55758;SDS011;41678;52.126;20.664;2024-01-10T22:16:53;24.67;;;15.73;;
55758;SDS011;41678;52.126;20.664;2024-01-10T22:22:14;50.22;;;18.40;;
55758;SDS011;41678;52.126;20.664;2024-01-10T22:27:34;43.05;;;20.63;;
55758;SDS011;41678;52.126;20.664;2024-01-10T22:32:56;49.65;;;19.58;;
55758;SDS011;41678;52.126;20.664;2024-01-10T22:38:16;18.35;;;9.85;;
55758;SDS011;41678;52.126;20.664;2024-01-10T22:43:36;33.95;;;21.58;;
55758;SDS011;41678;52.126;20.664;2024-01-10T22:48:55;48.25;;;17.58;;
55758;SDS011;41678;52.126;20.664;2024-01-10T22:54:16;35.65;;;16.10;;
55758;SDS011;41678;52.126;20.664;2024-01-10T22:59:35;39.20;;;13.32;;
55758;SDS011;41678;52.126;20.664;2024-01-10T23:04:54;46.83;;;18.58;;
55758;SDS011;41678;52.126;20.664;2024-01-10T23:10:14;43.08;;;13.32;;
55758;SDS011;41678;52.126;20.664;2024-01-10T23:15:34;14.52;;;6.70;;
55758;SDS011;41678;52.126;20.664;2024-01-10T23:20:53;20.63;;;9.27;;
55758;SDS011;41678;52.126;20.664;2024-01-10T23:26:13;22.55;;;13.25;;
55758;SDS011;41678;52.126;20.664;2024-01-10T23:31:33;21.52;;;10.52;;
55758;SDS011;41678;52.126;20.664;2024-01-10T23:36:52;24.17;;;13.13;;
55758;SDS011;41678;52.126;20.664;2024-01-10T23:42:12;33.28;;;14.75;;
55758;SDS011;41678;52.126;20.664;2024-01-10T23:47:31;29.45;;;10.13;;
55758;SDS011;41678;52.126;20.664;2024-01-10T23:52:51;42.17;;;20.13;;
55758;SDS011;41678;52.126;20.664;2024-01-10T23:58:10;28.20;;;15.20;;
